Time;durP1;ratioP1;P1;durP2;ratioP2;P2;SDS_P1;SDS_P2;PMS_P1;PMS_P2;Temp;Humidity;BMP_temperature;BMP_pressure;BME280_temperature;BME280_humidity;BME280_pressure;Samples;Min_cycle;Max_cycle;Signal;HPM_P1;HPM_P2
2022/07/24 00:00:44;;;;;;;6.63;4.70;;;15.30;79.10;;;;;;4951207;28;20278;-68
2022/07/24 00:03:10;;;;;;;4.97;4.50;;;15.30;79.80;;;;;;4967099;28;20045;-68
2022/07/24 00:05:35;;;;;;;7.17;5.40;;;15.30;79.50;;;;;;4950071;28;20042;-66
2022/07/24 00:08:02;;;;;;;7.57;5.10;;;15.30;79.60;;;;;;4951397;28;20445;-66
2022/07/24 00:10:27;;;;;;;7.33;5.30;;;15.20;79.60;;;;;;4969943;28;20050;-67
2022/07/24 00:12:53;;;;;;;5.57;4.80;;;15.20;80.00;;;;;;4956249;28;20379;-67
2022/07/24 00:15:19;;;;;;;7.17;4.87;;;15.20;79.90;;;;;;4974434;28;20112;-67
2022/07/24 00:17:44;;;;;;;6.73;4.60;;;15.10;80.00;;;;;;4955321;28;20260;-67
2022/07/24 00:20:10;;;;;;;6.93;5.30;;;15.10;79.80;;;;;;4974821;28;20039;-67
2022/07/24 00:22:36;;;;;;;5.63;5.00;;;15.10;80.20;;;;;;4984667;28;20053;-67
2022/07/24 00:25:03;;;;;;;6.00;4.80;;;15.10;79.90;;;;;;4962048;28;20502;-67
2022/07/24 00:27:28;;;;;;;6.10;4.87;;;15.10;79.60;;;;;;4965994;28;20061;-67
2022/07/24 00:29:54;;;;;;;7.97;5.70;;;15.10;80.20;;;;;;4953004;28;20832;-67
2022/07/24 00:32:20;;;;;;;6.27;5.07;;;15.10;80.00;;;;;;4966807;28;20038;-67
2022/07/24 00:34:46;;;;;;;5.97;5.07;;;15.00;79.90;;;;;;4973950;28;20108;-67
2022/07/24 00:37:12;;;;;;;6.53;5.53;;;15.00;80.30;;;;;;4956739;28;20828;-67
2022/07/24 00:39:37;;;;;;;6.83;5.40;;;15.00;80.10;;;;;;4958422;28;20061;-67
2022/07/24 00:42:03;;;;;;;6.17;5.37;;;15.00;80.50;;;;;;4972870;28;20277;-67
2022/07/24 00:44:29;;;;;;;5.43;4.70;;;15.00;81.00;;;;;;4972191;28;20482;-68
2022/07/24 00:46:55;;;;;;;6.70;5.17;;;14.90;80.80;;;;;;4964628;28;20055;-68
2022/07/24 00:49:21;;;;;;;6.17;4.97;;;14.90;81.00;;;;;;4970437;28;20153;-67
2022/07/24 00:51:50;;;;;;;6.47;5.57;;;14.90;81.00;;;;;;4940268;28;20043;-67
2022/07/24 00:54:17;;;;;;;7.37;5.60;;;14.90;81.40;;;;;;4969074;28;20517;-67
2022/07/24 00:56:45;;;;;;;7.30;5.93;;;14.90;81.30;;;;;;4957640;28;20302;-67
2022/07/24 00:59:11;;;;;;;8.37;5.80;;;14.90;81.00;;;;;;4974251;28;20273;-67
2022/07/24 01:01:37;;;;;;;7.40;5.60;;;14.90;81.30;;;;;;4972321;28;20288;-67
2022/07/24 01:04:03;;;;;;;6.13;5.53;;;14.80;81.00;;;;;;4955572;28;20034;-67
2022/07/24 01:06:28;;;;;;;9.33;6.23;;;14.80;81.30;;;;;;4966871;28;20297;-67
2022/07/24 01:08:55;;;;;;;6.53;5.50;;;14.80;81.90;;;;;;4936460;28;20438;-67
2022/07/24 01:11:21;;;;;;;5.97;4.90;;;14.80;81.80;;;;;;4970254;28;20034;-67
2022/07/24 01:13:48;;;;;;;7.70;5.57;;;14.80;81.80;;;;;;4956376;28;20285;-67
2022/07/24 01:16:15;;;;;;;7.70;5.33;;;14.80;81.60;;;;;;4947752;28;20323;-67
2022/07/24 01:18:40;;;;;;;6.87;5.60;;;14.80;81.60;;;;;;4957829;28;20701;-67
2022/07/24 01:21:07;;;;;;;8.63;5.57;;;14.80;81.60;;;;;;4967892;28;20317;-67
2022/07/24 01:23:33;;;;;;;7.03;5.60;;;14.80;81.60;;;;;;4972060;28;20034;-67
2022/07/24 01:25:59;;;;;;;8.10;4.90;;;14.70;81.50;;;;;;4988345;28;20773;-67
2022/07/24 01:28:25;;;;;;;8.13;5.83;;;14.70;81.50;;;;;;4957992;28;20294;-67
2022/07/24 01:30:51;;;;;;;5.33;4.77;;;14.70;81.40;;;;;;4960955;28;20286;-67
2022/07/24 01:33:17;;;;;;;7.20;6.07;;;14.70;81.70;;;;;;4953757;28;20281;-67
2022/07/24 01:35:43;;;;;;;7.63;5.70;;;14.70;81.50;;;;;;4971349;28;20034;-67
2022/07/24 01:38:10;;;;;;;9.47;5.77;;;14.70;81.70;;;;;;4956986;28;20517;-67
2022/07/24 01:40:36;;;;;;;7.30;5.80;;;14.70;81.90;;;;;;4950384;28;20302;-67
2022/07/24 01:43:03;;;;;;;7.33;5.83;;;14.70;81.80;;;;;;4961631;28;20860;-67
2022/07/24 01:45:28;;;;;;;7.30;6.27;;;14.70;81.80;;;;;;4970690;28;20042;-67
2022/07/24 01:47:54;;;;;;;7.10;6.13;;;14.70;81.80;;;;;;4968837;28;20356;-68
2022/07/24 01:50:20;;;;;;;6.43;5.67;;;14.70;81.70;;;;;;4971675;28;20125;-67
2022/07/24 01:52:46;;;;;;;8.13;6.33;;;14.70;81.80;;;;;;4948241;28;20057;-67
2022/07/24 01:55:11;;;;;;;8.47;6.63;;;14.70;81.80;;;;;;4970980;28;20061;-67
2022/07/24 01:57:37;;;;;;;9.53;6.97;;;14.70;81.50;;;;;;4953319;28;20046;-67
2022/07/24 02:00:05;;;;;;;8.80;6.10;;;14.70;81.70;;;;;;4956828;28;20046;-67
2022/07/24 02:02:31;;;;;;;6.93;6.13;;;14.80;81.90;;;;;;4972212;28;20042;-67
2022/07/24 02:04:56;;;;;;;7.87;6.33;;;14.80;81.90;;;;;;4969295;28;20293;-67
2022/07/24 02:07:22;;;;;;;9.83;7.00;;;14.80;81.70;;;;;;4955242;28;20145;-67
2022/07/24 02:09:48;;;;;;;11.93;7.13;;;14.90;81.80;;;;;;4970748;28;20034;-67
2022/07/24 02:12:14;;;;;;;7.93;6.17;;;14.90;81.60;;;;;;4940904;28;20693;-67
2022/07/24 02:14:39;;;;;;;9.30;7.07;;;15.00;81.60;;;;;;4967981;28;20053;-67
2022/07/24 02:17:05;;;;;;;11.10;7.43;;;15.00;81.60;;;;;;4966080;28;20054;-67
2022/07/24 02:19:31;;;;;;;7.80;6.67;;;15.00;81.60;;;;;;4963957;28;20042;-67
2022/07/24 02:21:56;;;;;;;7.77;6.43;;;15.10;81.20;;;;;;4966624;28;20525;-67
2022/07/24 02:24:22;;;;;;;10.37;6.97;;;15.10;81.60;;;;;;4970057;28;20859;-67
2022/07/24 02:26:49;;;;;;;9.23;6.70;;;15.10;81.60;;;;;;4952107;28;20121;-67
2022/07/24 02:29:15;;;;;;;9.27;6.77;;;15.10;81.60;;;;;;4934086;28;20054;-67
2022/07/24 02:31:41;;;;;;;8.40;6.80;;;15.10;81.70;;;;;;4969568;28;20331;-68
2022/07/24 02:34:06;;;;;;;8.77;7.00;;;15.10;81.60;;;;;;4965125;28;20330;-68
2022/07/24 02:36:32;;;;;;;8.20;6.57;;;15.20;82.00;;;;;;4964443;28;20042;-68
2022/07/24 02:38:58;;;;;;;8.17;7.20;;;15.20;81.70;;;;;;4953062;28;20047;-68
2022/07/24 02:41:24;;;;;;;10.90;6.80;;;15.20;81.60;;;;;;4969468;28;20453;-68
2022/07/24 02:43:49;;;;;;;7.20;6.03;;;15.20;81.90;;;;;;4937975;28;20081;-68
2022/07/24 02:46:15;;;;;;;8.47;6.60;;;15.20;81.60;;;;;;4972712;28;20046;-68
2022/07/24 02:48:41;;;;;;;8.50;7.07;;;15.20;81.50;;;;;;4965172;28;20129;-68
2022/07/24 02:51:06;;;;;;;8.73;6.73;;;15.20;81.30;;;;;;4970553;28;20169;-68
2022/07/24 02:53:32;;;;;;;8.13;6.23;;;15.20;81.60;;;;;;4956596;28;20046;-68
2022/07/24 02:55:58;;;;;;;8.50;7.30;;;15.30;81.50;;;;;;4956369;28;20096;-68
2022/07/24 02:58:24;;;;;;;8.33;6.27;;;15.20;81.40;;;;;;4970239;28;20121;-68
2022/07/24 03:00:50;;;;;;;10.07;7.00;;;15.30;81.60;;;;;;4952202;28;20133;-67
2022/07/24 03:03:15;;;;;;;8.43;7.07;;;15.30;81.60;;;;;;4972359;28;20513;-67
2022/07/24 03:05:41;;;;;;;8.47;7.00;;;15.30;81.80;;;;;;4972175;28;20125;-67
2022/07/24 03:08:07;;;;;;;8.13;6.33;;;15.30;81.90;;;;;;4952363;28;20039;-67
2022/07/24 03:10:32;;;;;;;8.20;6.40;;;15.30;81.40;;;;;;4952420;28;20050;-67
2022/07/24 03:12:58;;;;;;;9.13;6.60;;;15.40;81.70;;;;;;4965868;28;20077;-67
2022/07/24 03:15:24;;;;;;;10.30;7.00;;;15.30;81.50;;;;;;4971700;28;20092;-67
2022/07/24 03:17:55;;;;;;;9.87;7.10;;;15.30;81.60;;;;;;4953870;28;20293;-67
2022/07/24 03:20:23;;;;;;;8.93;7.20;;;15.30;81.60;;;;;;4971633;28;20073;-68
2022/07/24 03:22:51;;;;;;;8.90;7.40;;;15.30;81.70;;;;;;4936514;28;20356;-68
2022/07/24 03:25:17;;;;;;;8.37;7.07;;;15.30;82.20;;;;;;4955436;28;20297;-68
2022/07/24 03:27:46;;;;;;;8.80;7.23;;;15.30;81.70;;;;;;4967791;28;20289;-68
2022/07/24 03:30:12;;;;;;;10.33;6.93;;;15.30;81.80;;;;;;4947459;28;20824;-68
2022/07/24 03:32:38;;;;;;;9.17;7.47;;;15.30;81.90;;;;;;4959837;28;20313;-68
2022/07/24 03:35:04;;;;;;;8.30;6.60;;;15.30;81.80;;;;;;4943069;28;20356;-68
2022/07/24 03:37:30;;;;;;;8.30;6.43;;;15.30;81.80;;;;;;4946883;28;20307;-68
2022/07/24 03:39:56;;;;;;;9.10;6.90;;;15.30;81.80;;;;;;4968124;28;20298;-68
2022/07/24 03:42:22;;;;;;;9.37;7.23;;;15.20;81.80;;;;;;4967854;28;20047;-67
2022/07/24 03:44:48;;;;;;;8.77;7.13;;;15.20;82.50;;;;;;4971919;28;20319;-67
2022/07/24 03:47:13;;;;;;;11.17;7.27;;;15.20;82.10;;;;;;4971605;28;20095;-67
2022/07/24 03:49:39;;;;;;;8.87;7.13;;;15.20;82.10;;;;;;4953615;28;20068;-67
2022/07/24 03:52:05;;;;;;;9.37;7.63;;;15.20;82.50;;;;;;4971517;28;20046;-67
2022/07/24 03:54:31;;;;;;;11.57;8.43;;;15.20;82.60;;;;;;4968425;28;20042;-67
2022/07/24 03:56:56;;;;;;;12.40;7.83;;;15.20;82.70;;;;;;4947281;29;20039;-67
2022/07/24 03:59:22;;;;;;;10.77;7.77;;;15.20;82.20;;;;;;4970469;28;20054;-67
2022/07/24 04:01:48;;;;;;;9.50;7.30;;;15.20;82.50;;;;;;4945084;29;20562;-67
2022/07/24 04:04:13;;;;;;;9.23;7.20;;;15.20;82.50;;;;;;4961740;28;20489;-67
2022/07/24 04:06:42;;;;;;;9.37;7.80;;;15.20;82.60;;;;;;4943905;29;20289;-67
2022/07/24 04:09:08;;;;;;;10.93;7.70;;;15.20;82.30;;;;;;4952024;28;20049;-67
2022/07/24 04:11:34;;;;;;;10.00;6.93;;;15.30;82.30;;;;;;4983392;28;20646;-67
2022/07/24 04:14:00;;;;;;;8.53;7.30;;;15.30;82.70;;;;;;4945451;28;20844;-67
2022/07/24 04:16:26;;;;;;;9.50;7.43;;;15.30;82.80;;;;;;4952904;28;20326;-67
2022/07/24 04:18:52;;;;;;;11.17;7.77;;;15.30;82.50;;;;;;4948911;28;20038;-68
2022/07/24 04:21:18;;;;;;;10.30;8.10;;;15.30;82.70;;;;;;4971240;28;20804;-67
2022/07/24 04:23:44;;;;;;;9.10;7.53;;;15.40;82.80;;;;;;4972013;28;20038;-67
2022/07/24 04:26:10;;;;;;;9.90;7.83;;;15.40;82.70;;;;;;4968628;28;20453;-67
2022/07/24 04:28:35;;;;;;;10.97;8.10;;;15.40;82.90;;;;;;4971742;28;20034;-67
2022/07/24 04:31:01;;;;;;;10.67;8.53;;;15.40;82.70;;;;;;4966461;28;20081;-67
2022/07/24 04:33:27;;;;;;;9.30;6.97;;;15.50;82.80;;;;;;4952980;28;20637;-67
2022/07/24 04:35:53;;;;;;;11.97;7.93;;;15.50;82.60;;;;;;4959880;28;20389;-67
2022/07/24 04:38:19;;;;;;;9.37;7.87;;;15.60;82.70;;;;;;4959653;28;20092;-67
2022/07/24 04:40:44;;;;;;;12.00;7.87;;;15.60;82.70;;;;;;4957476;28;20055;-67
2022/07/24 04:43:10;;;;;;;10.43;8.07;;;15.70;82.50;;;;;;4967618;28;20047;-67
2022/07/24 04:45:36;;;;;;;10.00;8.07;;;15.70;82.30;;;;;;4954772;28;20053;-66
2022/07/24 04:48:02;;;;;;;10.20;8.27;;;15.80;82.40;;;;;;4971396;28;20623;-66
2022/07/24 04:50:28;;;;;;;13.63;8.50;;;15.80;82.40;;;;;;4971209;28;20061;-67
2022/07/24 04:52:54;;;;;;;11.93;8.43;;;15.90;82.30;;;;;;4966683;28;20290;-67
2022/07/24 04:55:20;;;;;;;11.57;8.50;;;16.00;82.30;;;;;;4954269;28;20045;-67
2022/07/24 04:57:46;;;;;;;11.13;8.17;;;16.10;82.20;;;;;;4967244;28;20280;-67
2022/07/24 05:00:13;;;;;;;11.93;8.37;;;16.30;82.10;;;;;;4953195;28;20288;-66
2022/07/24 05:02:39;;;;;;;10.53;7.60;;;16.70;81.90;;;;;;4955534;28;20047;-66
2022/07/24 05:05:05;;;;;;;8.70;7.57;;;17.30;80.40;;;;;;4971340;28;20834;-66
2022/07/24 05:07:31;;;;;;;11.40;7.90;;;18.00;78.70;;;;;;4955348;28;20682;-66
2022/07/24 05:09:58;;;;;;;11.47;7.37;;;18.20;76.60;;;;;;4971119;28;20289;-66
2022/07/24 05:12:24;;;;;;;12.93;8.03;;;18.20;75.80;;;;;;4961918;28;20232;-66
2022/07/24 05:14:50;;;;;;;10.43;8.33;;;18.30;75.70;;;;;;4963741;28;20361;-66
2022/07/24 05:17:16;;;;;;;9.27;7.60;;;18.80;75.00;;;;;;4968939;28;20301;-66
2022/07/24 05:19:41;;;;;;;8.97;8.00;;;19.40;73.40;;;;;;4970998;28;20038;-67
2022/07/24 05:22:07;;;;;;;9.30;7.60;;;19.90;72.30;;;;;;4954399;28;20113;-67
2022/07/24 05:24:33;;;;;;;10.87;8.67;;;20.30;70.90;;;;;;4970672;28;20039;-67
2022/07/24 05:26:59;;;;;;;9.93;7.67;;;20.70;69.60;;;;;;4987122;28;20109;-67
2022/07/24 05:29:25;;;;;;;9.80;8.47;;;21.10;68.10;;;;;;4954594;28;20530;-67
2022/07/24 05:31:53;;;;;;;12.30;8.10;;;21.30;67.00;;;;;;4954550;28;20411;-67
2022/07/24 05:34:20;;;;;;;10.03;8.10;;;21.60;66.40;;;;;;4966129;28;20047;-67
2022/07/24 05:36:45;;;;;;;10.50;8.30;;;21.70;65.80;;;;;;4953233;28;20306;-67
2022/07/24 05:39:11;;;;;;;10.60;7.47;;;21.80;65.30;;;;;;4948432;29;20299;-65
2022/07/24 05:41:37;;;;;;;11.33;8.27;;;22.00;65.20;;;;;;4943860;28;20099;-65
2022/07/24 05:44:03;;;;;;;10.87;8.33;;;22.20;64.70;;;;;;4945397;28;20062;-66
2022/07/24 05:46:28;;;;;;;9.90;8.13;;;22.40;64.20;;;;;;4968949;28;20446;-66
2022/07/24 05:48:54;;;;;;;14.30;8.77;;;22.70;63.70;;;;;;4963015;28;20054;-67
2022/07/24 05:51:20;;;;;;;12.13;8.73;;;22.80;63.50;;;;;;4951811;28;20042;-67
2022/07/24 05:53:45;;;;;;;12.50;9.57;;;23.10;62.60;;;;;;4966752;28;20050;-67
2022/07/24 05:56:11;;;;;;;14.07;9.63;;;23.50;62.00;;;;;;4951954;28;20054;-67
2022/07/24 05:58:37;;;;;;;13.07;9.20;;;23.70;60.90;;;;;;4945711;28;20038;-67
2022/07/24 06:01:03;;;;;;;14.57;9.77;;;23.10;61.50;;;;;;4947646;28;20482;-67
2022/07/24 06:03:29;;;;;;;11.27;8.73;;;22.70;62.20;;;;;;4953948;28;20117;-67
2022/07/24 06:05:54;;;;;;;12.67;9.83;;;22.20;63.80;;;;;;4954073;28;20146;-65
2022/07/24 06:08:20;;;;;;;11.50;9.93;;;22.00;64.90;;;;;;4954150;28;20034;-65
2022/07/24 06:10:46;;;;;;;11.50;9.57;;;22.30;64.60;;;;;;4970219;28;20043;-65
2022/07/24 06:13:12;;;;;;;11.73;9.50;;;22.70;64.10;;;;;;4938223;28;20427;-66
2022/07/24 06:15:37;;;;;;;12.03;10.20;;;23.20;63.30;;;;;;4926885;28;20085;-66
2022/07/24 06:18:03;;;;;;;11.57;9.17;;;23.70;62.30;;;;;;4964292;28;20126;-66
2022/07/24 06:20:29;;;;;;;12.97;10.40;;;24.20;61.40;;;;;;4950771;28;20043;-66
2022/07/24 06:22:55;;;;;;;11.13;9.80;;;24.40;60.30;;;;;;4937631;28;20422;-67
2022/07/24 06:25:21;;;;;;;12.93;10.73;;;24.00;60.80;;;;;;4937775;28;20067;-67
2022/07/24 06:27:50;;;;;;;16.90;10.87;;;23.70;62.00;;;;;;4942611;28;20074;-67
2022/07/24 06:30:19;;;;;;;16.03;12.53;;;23.80;61.90;;;;;;4950511;28;20121;-67
2022/07/24 06:32:45;;;;;;;14.10;11.00;;;23.90;61.90;;;;;;4961328;28;20055;-67
2022/07/24 06:35:12;;;;;;;13.63;10.77;;;24.20;61.30;;;;;;4947733;28;20108;-66
2022/07/24 06:37:37;;;;;;;14.93;11.97;;;24.40;60.30;;;;;;4947715;29;20476;-67
2022/07/24 06:40:04;;;;;;;14.40;11.97;;;24.50;60.40;;;;;;4938490;28;20515;-67
2022/07/24 06:42:30;;;;;;;15.83;11.53;;;24.70;60.00;;;;;;4919696;29;20051;-67
2022/07/24 06:44:56;;;;;;;17.30;12.17;;;25.10;60.00;;;;;;4951264;28;20106;-67
2022/07/24 06:47:22;;;;;;;14.90;12.37;;;25.50;59.70;;;;;;4979226;28;20319;-67
2022/07/24 06:49:48;;;;;;;17.23;12.33;;;25.80;58.90;;;;;;4961424;28;20066;-67
2022/07/24 06:52:13;;;;;;;15.03;12.60;;;25.70;58.50;;;;;;4953055;28;20053;-67
2022/07/24 06:54:39;;;;;;;16.73;12.87;;;25.20;59.40;;;;;;4959921;28;20042;-67
2022/07/24 06:57:05;;;;;;;16.47;12.20;;;24.40;61.10;;;;;;4939459;28;20047;-65
2022/07/24 06:59:30;;;;;;;14.90;12.13;;;23.80;62.40;;;;;;4935929;28;20133;-66
2022/07/24 07:01:56;;;;;;;16.53;12.10;;;23.30;63.70;;;;;;4934981;29;20490;-65
2022/07/24 07:04:22;;;;;;;14.47;12.37;;;23.00;64.90;;;;;;4938829;28;20043;-66
2022/07/24 07:06:48;;;;;;;15.67;11.73;;;22.70;65.60;;;;;;4951135;28;20135;-66
2022/07/24 07:09:13;;;;;;;15.27;11.47;;;22.60;66.60;;;;;;4934901;28;20130;-66
2022/07/24 07:11:39;;;;;;;14.50;11.43;;;22.50;67.10;;;;;;4943119;29;20411;-66
2022/07/24 07:14:05;;;;;;;13.77;11.90;;;22.40;67.60;;;;;;4948554;28;20130;-66
2022/07/24 07:16:30;;;;;;;16.00;12.07;;;22.30;67.90;;;;;;4949045;28;20079;-66
2022/07/24 07:18:56;;;;;;;15.20;11.27;;;22.30;68.20;;;;;;4934080;29;20043;-66
2022/07/24 07:21:22;;;;;;;15.93;12.63;;;22.30;68.40;;;;;;4948074;28;20078;-66
2022/07/24 07:23:47;;;;;;;15.63;11.47;;;22.30;68.60;;;;;;4942324;28;20130;-66
2022/07/24 07:26:13;;;;;;;16.60;10.10;;;22.30;69.00;;;;;;4957420;28;20051;-66
2022/07/24 07:28:40;;;;;;;11.97;8.33;;;22.30;69.10;;;;;;4927290;29;20456;-67
2022/07/24 07:31:05;;;;;;;8.80;6.53;;;22.30;69.00;;;;;;4948403;28;20043;-67
2022/07/24 07:33:31;;;;;;;8.40;6.00;;;22.30;68.90;;;;;;4930652;29;20419;-67
2022/07/24 07:35:57;;;;;;;7.73;5.33;;;22.30;68.50;;;;;;4956867;28;20407;-67
2022/07/24 07:38:22;;;;;;;7.70;5.30;;;22.30;67.80;;;;;;4938896;28;20039;-67
2022/07/24 07:40:48;;;;;;;11.03;6.97;;;22.40;68.10;;;;;;4935451;29;20069;-66
2022/07/24 07:43:14;;;;;;;9.53;6.80;;;22.40;68.50;;;;;;4942189;29;20031;-66
2022/07/24 07:45:39;;;;;;;10.50;7.33;;;22.50;68.70;;;;;;4941227;29;20047;-66
2022/07/24 07:48:05;;;;;;;10.53;7.57;;;22.50;69.00;;;;;;4930612;29;20122;-66
2022/07/24 07:50:31;;;;;;;12.07;8.07;;;22.70;69.00;;;;;;4941448;29;20126;-66
2022/07/24 07:52:57;;;;;;;10.53;7.70;;;22.90;68.90;;;;;;4929374;29;20049;-66
2022/07/24 07:55:22;;;;;;;9.73;7.33;;;23.10;67.60;;;;;;4942880;29;20126;-66
2022/07/24 07:57:49;;;;;;;11.77;8.03;;;23.20;66.80;;;;;;4945845;29;20090;-66
2022/07/24 08:00:15;;;;;;;9.83;7.60;;;23.20;66.40;;;;;;4946323;29;20688;-66
2022/07/24 08:02:41;;;;;;;11.73;7.77;;;23.20;66.50;;;;;;4913151;29;20700;-66
2022/07/24 08:05:07;;;;;;;10.23;7.70;;;23.20;66.20;;;;;;4942686;29;20043;-66
2022/07/24 08:07:33;;;;;;;12.13;8.13;;;23.20;66.50;;;;;;4928573;29;20047;-66
2022/07/24 08:09:58;;;;;;;11.23;7.50;;;23.40;66.10;;;;;;4939752;29;20035;-67
2022/07/24 08:12:24;;;;;;;10.53;7.40;;;23.50;65.60;;;;;;4946239;28;20093;-68
2022/07/24 08:14:50;;;;;;;10.40;7.63;;;23.70;65.80;;;;;;4930531;29;20057;-67
2022/07/24 08:17:15;;;;;;;9.63;7.30;;;23.90;65.70;;;;;;4932949;29;20051;-69
2022/07/24 08:19:41;;;;;;;8.93;6.40;;;24.00;65.10;;;;;;4944638;29;20147;-68
2022/07/24 08:22:07;;;;;;;7.67;5.13;;;24.10;64.70;;;;;;4940944;29;20051;-71
2022/07/24 08:24:34;;;;;;;8.23;5.77;;;24.10;64.20;;;;;;4946357;29;20074;-74
2022/07/24 08:26:59;;;;;;;5.70;4.87;;;24.00;63.90;;;;;;4949144;28;20047;-73
2022/07/24 08:29:26;;;;;;;5.93;4.63;;;23.80;64.10;;;;;;4942686;29;20271;-73
2022/07/24 08:31:52;;;;;;;6.83;4.30;;;23.80;64.60;;;;;;4966363;28;20078;-73
2022/07/24 08:34:18;;;;;;;4.83;3.03;;;23.80;64.70;;;;;;4943664;29;20047;-73
2022/07/24 08:36:46;;;;;;;5.20;2.90;;;23.90;63.80;;;;;;4918621;29;20589;-72
2022/07/24 08:39:12;;;;;;;4.40;3.67;;;23.90;61.90;;;;;;4934226;29;20055;-64
2022/07/24 08:41:38;;;;;;;5.90;2.60;;;23.90;63.50;;;;;;4944589;29;20062;-64
2022/07/24 08:44:05;;;;;;;3.97;2.60;;;24.00;63.90;;;;;;4951838;29;20066;-65
2022/07/24 08:46:32;;;;;;;5.47;2.63;;;24.10;62.90;;;;;;4951703;29;20380;-68
2022/07/24 08:48:58;;;;;;;3.90;2.77;;;24.30;62.50;;;;;;4948918;29;20047;-65
2022/07/24 08:51:31;;;;;;;6.37;2.77;;;24.40;62.50;;;;;;4952081;28;20045;-67
2022/07/24 08:53:57;;;;;;;5.53;2.53;;;24.50;62.40;;;;;;4950900;29;20071;-67
2022/07/24 08:56:23;;;;;;;4.93;2.60;;;24.20;61.20;;;;;;4948139;29;20534;-67
2022/07/24 08:58:49;;;;;;;3.80;2.90;;;24.20;60.60;;;;;;4951465;29;20042;-67
2022/07/24 09:01:14;;;;;;;4.23;2.27;;;23.90;60.80;;;;;;4947552;29;20031;-67
2022/07/24 09:03:41;;;;;;;6.17;2.97;;;23.80;61.70;;;;;;4938771;29;20244;-67
2022/07/24 09:06:09;;;;;;;4.77;2.90;;;23.90;61.70;;;;;;4925441;29;20114;-67
2022/07/24 09:08:35;;;;;;;3.43;2.23;;;24.10;62.00;;;;;;4924660;29;20374;-67
2022/07/24 09:11:06;;;;;;;6.03;2.30;;;24.30;62.00;;;;;;4935174;29;20130;-67
2022/07/24 09:16:23;;;;;;;3.77;2.60;;;24.30;59.90;;;;;;4947071;29;20070;-67
2022/07/24 09:19:02;;;;;;;3.63;2.10;;;24.50;60.10;;;;;;4941074;29;20095;-67
2022/07/24 09:21:31;;;;;;;3.20;2.33;;;24.60;60.10;;;;;;4947307;28;20078;-67
2022/07/24 09:24:02;;;;;;;4.60;2.77;;;24.80;59.80;;;;;;4947839;29;20054;-67
2022/07/24 09:26:44;;;;;;;3.10;2.20;;;25.00;59.60;;;;;;4906227;29;20074;-67
2022/07/24 09:29:12;;;;;;;3.10;2.20;;;25.10;59.40;;;;;;4941795;29;20479;-67
2022/07/24 09:32:00;;;;;;;3.50;2.10;;;25.20;59.00;;;;;;4930840;29;20639;-67
2022/07/24 09:34:28;;;;;;;4.50;2.10;;;25.40;57.80;;;;;;4947441;29;20164;-67
2022/07/24 09:36:55;;;;;;;3.30;2.17;;;25.30;58.10;;;;;;4925300;29;20051;-68
2022/07/24 09:39:21;;;;;;;3.67;2.53;;;25.30;58.40;;;;;;4947242;29;20055;-68
2022/07/24 09:41:55;;;;;;;5.17;2.50;;;25.00;57.70;;;;;;4954837;28;20337;-68
2022/07/24 09:44:23;;;;;;;3.90;2.22;;;25.10;58.20;;;;;;4944505;29;20042;-68
2022/07/24 09:46:55;;;;;;;5.10;2.87;;;25.30;59.20;;;;;;4962929;28;20047;-68
2022/07/24 09:49:22;;;;;;;4.77;2.80;;;25.40;58.40;;;;;;4946166;28;20049;-68
2022/07/24 09:52:32;;;;;;;6.87;2.73;;;25.40;58.70;;;;;;4942634;29;20114;-66
2022/07/24 09:54:58;;;;;;;5.60;2.80;;;25.60;58.30;;;;;;4915208;29;20186;-67
2022/07/24 09:57:26;;;;;;;4.87;2.40;;;25.50;57.90;;;;;;4929504;29;20126;-67
2022/07/24 09:59:56;;;;;;;4.33;2.50;;;25.60;58.30;;;;;;4964006;28;20058;-67
2022/07/24 10:02:24;;;;;;;3.17;2.40;;;25.80;57.80;;;;;;4936183;29;20531;-67
2022/07/24 10:04:51;;;;;;;3.00;2.40;;;26.10;57.60;;;;;;4932667;29;20062;-67
2022/07/24 10:07:20;;;;;;;3.63;2.77;;;26.20;57.20;;;;;;4923244;29;20035;-67
2022/07/24 10:09:48;;;;;;;3.83;2.50;;;26.30;57.00;;;;;;4944048;28;20086;-67
2022/07/24 10:12:26;;;;;;;3.53;2.10;;;26.30;57.20;;;;;;4954968;28;20039;-66
2022/07/24 10:14:56;;;;;;;6.17;2.87;;;26.40;57.00;;;;;;4953452;28;20123;-66
2022/07/24 10:17:33;;;;;;;4.73;2.90;;;26.40;57.10;;;;;;4946121;28;20051;-66
2022/07/24 10:20:03;;;;;;;5.37;2.93;;;26.40;56.60;;;;;;4952119;28;20050;-66
2022/07/24 10:22:47;;;;;;;3.07;2.33;;;26.40;56.10;;;;;;4951598;28;20065;-66
2022/07/24 10:25:19;;;;;;;4.90;2.57;;;26.50;56.00;;;;;;4946399;29;20047;-66
2022/07/24 10:27:53;;;;;;;4.43;2.80;;;26.50;56.60;;;;;;4953057;28;20035;-66
2022/07/24 10:30:21;;;;;;;3.30;2.10;;;26.50;56.20;;;;;;4931603;29;20039;-67
2022/07/24 10:32:47;;;;;;;3.60;2.20;;;26.50;56.70;;;;;;4940566;28;20095;-66
2022/07/24 10:35:35;;;;;;;6.03;2.47;;;26.70;56.90;;;;;;4965102;28;20042;-66
2022/07/24 10:38:06;;;;;;;5.57;2.50;;;26.90;56.90;;;;;;4937574;28;20036;-68
2022/07/24 10:41:01;;;;;;;3.20;2.40;;;27.10;54.80;;;;;;4959241;28;20054;-66
2022/07/24 10:43:27;;;;;;;3.83;2.42;;;27.20;55.10;;;;;;4957541;28;20586;-66
2022/07/24 10:45:55;;;;;;;4.80;2.87;;;27.30;55.20;;;;;;4964681;28;20430;-66
2022/07/24 10:48:21;;;;;;;5.77;3.03;;;27.40;54.70;;;;;;4964647;28;20039;-66
2022/07/24 10:51:08;;;;;;;4.40;2.73;;;27.50;54.40;;;;;;4941459;28;20494;-66
2022/07/24 10:53:36;;;;;;;2.83;2.53;;;27.50;53.80;;;;;;4963156;28;20252;-66
2022/07/24 10:56:23;;;;;;;3.73;2.80;;;27.70;54.30;;;;;;4967436;28;20113;-66
2022/07/24 10:59:03;;;;;;;4.50;3.23;;;27.70;54.20;;;;;;4952168;28;20046;-66
2022/07/24 11:01:37;;;;;;;4.70;2.77;;;27.60;53.70;;;;;;4965745;28;20123;-66
2022/07/24 11:04:19;;;;;;;5.87;3.17;;;27.50;54.40;;;;;;4960716;28;20043;-66
2022/07/24 11:06:54;;;;;;;5.03;2.60;;;27.50;53.90;;;;;;4967091;28;20491;-66
2022/07/24 11:09:22;;;;;;;4.53;2.60;;;27.30;54.10;;;;;;4954686;28;20499;-66
2022/07/24 11:11:53;;;;;;;3.33;2.60;;;27.20;54.30;;;;;;4960915;28;20380;-66
2022/07/24 11:14:45;;;;;;;4.47;2.80;;;27.20;54.50;;;;;;4976727;28;20055;-66
2022/07/24 11:17:40;;;;;;;4.30;2.93;;;27.20;54.60;;;;;;4957772;28;20415;-66
2022/07/24 11:20:10;;;;;;;;;;;27.30;54.10;;;;;;4950779;28;20106;-66
2022/07/24 11:22:48;;;;;;;3.37;2.47;;;27.30;54.40;;;;;;4962371;28;20080;-66
2022/07/24 11:25:16;;;;;;;4.47;2.33;;;27.50;53.80;;;;;;4955439;28;20102;-67
2022/07/24 11:28:08;;;;;;;4.37;2.17;;;27.60;54.50;;;;;;4973726;28;20051;-67
2022/07/24 11:30:41;;;;;;;4.93;2.03;;;27.50;53.10;;;;;;4961937;28;20518;-67
2022/07/24 11:33:10;;;;;;;2.87;2.10;;;27.40;54.70;;;;;;4945202;28;20042;-67
2022/07/24 11:35:37;;;;;;;2.10;1.57;;;27.40;53.60;;;;;;4962396;28;20189;-67
2022/07/24 11:38:05;;;;;;;3.13;2.17;;;27.50;52.60;;;;;;4944348;28;20050;-67
2022/07/24 11:40:32;;;;;;;4.97;2.80;;;27.60;52.50;;;;;;4960103;28;20059;-67
2022/07/24 11:43:00;;;;;;;2.53;2.30;;;27.60;52.60;;;;;;4960587;28;20394;-67
2022/07/24 11:45:25;;;;;;;2.60;2.40;;;27.60;52.60;;;;;;4962131;28;20053;-66
2022/07/24 11:47:54;;;;;;;4.07;2.40;;;27.40;53.50;;;;;;4977224;28;20495;-66
2022/07/24 11:50:22;;;;;;;4.47;2.50;;;27.50;53.60;;;;;;4966129;28;20047;-67
2022/07/24 11:52:48;;;;;;;3.17;2.33;;;27.40;53.80;;;;;;4965276;28;20054;-67
2022/07/24 11:55:17;;;;;;;3.83;2.17;;;27.40;53.90;;;;;;4944796;28;20043;-66
2022/07/24 11:57:45;;;;;;;2.63;2.03;;;27.40;53.30;;;;;;4968361;28;20479;-66
2022/07/24 12:00:17;;;;;;;3.40;1.80;;;27.40;53.00;;;;;;4952241;28;20134;-66
2022/07/24 12:02:53;;;;;;;2.67;1.90;;;27.40;53.20;;;;;;4947195;28;20085;-66
2022/07/24 12:05:31;;;;;;;2.17;1.70;;;27.20;52.70;;;;;;4948690;28;20126;-66
2022/07/24 12:07:59;;;;;;;2.83;2.00;;;27.00;53.30;;;;;;4969790;28;20042;-66
2022/07/24 12:10:26;;;;;;;4.47;2.10;;;27.10;54.40;;;;;;4953484;28;20470;-66
2022/07/24 12:12:54;;;;;;;2.93;1.90;;;27.30;54.70;;;;;;4972157;28;20126;-66
2022/07/24 12:15:20;;;;;;;3.73;2.27;;;27.60;53.00;;;;;;4945683;28;20074;-66
2022/07/24 12:17:55;;;;;;;3.40;2.20;;;27.60;52.30;;;;;;4970079;28;20089;-66
2022/07/24 12:20:21;;;;;;;;;;;27.40;51.90;;;;;;4964165;28;20089;-66
2022/07/24 12:22:47;;;;;;;2.77;1.60;;;27.40;51.70;;;;;;4971487;28;19923;-66
2022/07/24 12:25:14;;;;;;;4.50;2.20;;;27.30;52.40;;;;;;4971978;28;20035;-66
2022/07/24 12:27:42;;;;;;;4.43;1.87;;;27.30;53.00;;;;;;4950524;28;20134;-66
2022/07/24 12:30:22;;;;;;;3.93;1.97;;;27.30;53.00;;;;;;4968032;28;20047;-66
2022/07/24 12:32:56;;;;;;;2.90;2.10;;;27.20;53.00;;;;;;4962366;28;20059;-66
2022/07/24 12:35:22;;;;;;;;;;;27.20;52.20;;;;;;4965765;28;20041;-66
2022/07/24 12:37:48;;;;;;;2.33;1.30;;;27.10;52.30;;;;;;4948571;28;19922;-66
2022/07/24 12:40:28;;;;;;;3.27;1.93;;;27.10;52.40;;;;;;4962629;28;20141;-66
2022/07/24 12:43:04;;;;;;;4.27;2.67;;;27.30;53.30;;;;;;4958654;28;20448;-66
2022/07/24 12:45:30;;;;;;;2.73;1.67;;;27.50;52.50;;;;;;4972843;28;20039;-66
2022/07/24 12:48:16;;;;;;;2.40;1.50;;;27.80;52.40;;;;;;4970149;28;20157;-66